createdAt,value
2019-01-08T00:02:36.935Z,43.95
2019-01-08T00:05:17.427Z,39.13
2019-01-08T00:07:57.082Z,35.63
2019-01-08T00:10:37.531Z,36.28
2019-01-08T00:13:17.326Z,33.88
2019-01-08T00:15:57.855Z,37.48
2019-01-08T00:18:38.795Z,34.73
2019-01-08T00:21:18.534Z,37.80
2019-01-08T00:23:58.606Z,32.70
2019-01-08T00:26:38.964Z,35.92
2019-01-08T00:29:18.748Z,33.63
2019-01-08T00:31:58.860Z,35.17
2019-01-08T00:34:39.432Z,33.40
2019-01-08T00:37:19.520Z,28.80
2019-01-08T00:39:59.378Z,29.77
2019-01-08T00:42:39.576Z,36.48
2019-01-08T00:45:19.694Z,26.82
2019-01-08T00:47:59.940Z,37.40
2019-01-08T00:50:39.796Z,27.25
2019-01-08T00:53:19.816Z,31.48
2019-01-08T00:55:59.908Z,30.80
2019-01-08T00:58:40.000Z,35.52
2019-01-08T01:01:20.228Z,31.05
2019-01-08T01:04:03.173Z,34.05
2019-01-08T01:06:42.934Z,32.00
2019-01-08T01:09:23.239Z,33.70
2019-01-08T01:12:03.195Z,27.55
2019-01-08T01:14:43.356Z,28.30
2019-01-08T01:17:23.431Z,25.05
2019-01-08T01:20:03.204Z,24.43
2019-01-08T01:22:44.085Z,27.87
2019-01-08T01:25:23.916Z,27.67
2019-01-08T01:28:04.001Z,27.15
2019-01-08T01:30:43.812Z,27.35
2019-01-08T01:33:24.200Z,25.02
2019-01-08T01:36:04.820Z,27.50
2019-01-08T01:38:45.266Z,36.30
2019-01-08T01:41:24.894Z,28.05
2019-01-08T01:44:04.960Z,29.65
2019-01-08T01:46:45.611Z,34.98
2019-01-08T01:49:25.208Z,31.07
2019-01-08T01:52:05.652Z,29.57
2019-01-08T01:54:45.244Z,25.57
2019-01-08T01:57:25.727Z,24.72
2019-01-08T02:02:46.963Z,24.67
2019-01-08T02:05:26.938Z,29.00
2019-01-08T02:08:06.731Z,26.20
2019-01-08T02:10:46.591Z,31.30
2019-01-08T02:13:26.881Z,29.10
2019-01-08T02:16:07.145Z,29.18
2019-01-08T02:21:27.500Z,28.17
2019-01-08T02:24:07.208Z,26.65
2019-01-08T02:26:47.180Z,26.15
2019-01-08T02:29:28.065Z,30.62
2019-01-08T02:32:07.727Z,24.12
2019-01-08T02:34:47.817Z,25.52
2019-01-08T02:37:27.716Z,25.68
2019-01-08T02:40:08.117Z,30.00
2019-01-08T02:42:48.092Z,27.00
2019-01-08T02:45:29.167Z,33.28
2019-01-08T02:48:09.647Z,24.30
2019-01-08T02:50:49.383Z,28.85
2019-01-08T02:53:29.881Z,30.80
2019-01-08T02:56:09.767Z,26.70
2019-01-08T02:58:49.409Z,32.03
2019-01-08T03:01:29.737Z,27.37
2019-01-08T03:04:09.815Z,28.57
2019-01-08T03:06:49.877Z,24.98
2019-01-08T03:09:32.348Z,28.07
2019-01-08T03:12:12.244Z,30.55
2019-01-08T03:14:52.534Z,29.30
2019-01-08T03:17:32.525Z,27.62
2019-01-08T03:20:13.465Z,32.70
2019-01-08T03:22:54.191Z,27.60
2019-01-08T03:25:34.903Z,29.07
2019-01-08T03:28:14.651Z,32.20
2019-01-08T03:30:54.958Z,27.93
2019-01-08T03:33:35.259Z,34.92
2019-01-08T03:36:16.104Z,30.77
2019-01-08T03:38:56.514Z,31.45
2019-01-08T03:41:36.933Z,33.88
2019-01-08T03:44:17.226Z,34.40
2019-01-08T03:46:57.464Z,37.95
2019-01-08T03:49:38.065Z,30.17
2019-01-08T03:52:17.868Z,28.98
2019-01-08T03:54:57.954Z,31.42
2019-01-08T03:57:37.925Z,28.67
2019-01-08T04:00:18.012Z,29.05
2019-01-08T04:02:58.159Z,28.70
2019-01-08T04:05:38.314Z,24.85
2019-01-08T04:08:18.812Z,28.67
2019-01-08T04:10:58.700Z,26.02
2019-01-08T04:13:38.738Z,24.47
2019-01-08T04:16:18.955Z,26.02
2019-01-08T04:18:58.671Z,25.20
2019-01-08T04:21:39.012Z,25.97
2019-01-08T04:24:18.723Z,31.57
2019-01-08T04:26:58.971Z,26.52
2019-01-08T04:29:39.404Z,28.25
2019-01-08T04:32:19.177Z,27.27
2019-01-08T04:34:59.102Z,30.80
2019-01-08T04:37:39.349Z,30.80
2019-01-08T04:40:19.113Z,30.72
2019-01-08T04:43:00.049Z,28.90
2019-01-08T04:45:40.554Z,22.98
2019-01-08T04:48:20.708Z,28.95
2019-01-08T04:51:00.868Z,32.05
2019-01-08T04:53:41.151Z,28.73
2019-01-08T04:56:19.265Z,31.57
2019-01-08T04:59:06.240Z,28.42
2019-01-08T05:01:46.423Z,29.87
2019-01-08T05:04:26.420Z,32.08
2019-01-08T05:07:06.194Z,26.90
2019-01-08T05:09:46.863Z,29.85
2019-01-08T05:12:26.568Z,28.07
2019-01-08T05:15:07.370Z,28.25
2019-01-08T05:17:47.845Z,27.87
2019-01-08T05:20:28.084Z,25.55
2019-01-08T05:22:55.589Z,32.88
2019-01-08T05:25:42.942Z,26.57
2019-01-08T05:28:23.186Z,23.25
2019-01-08T05:31:03.185Z,29.35
2019-01-08T05:33:43.157Z,25.05
2019-01-08T05:36:23.173Z,24.63
2019-01-08T05:39:04.404Z,30.60
2019-01-08T05:41:45.766Z,26.10
2019-01-08T05:44:26.226Z,25.05
2019-01-08T05:47:06.121Z,26.73
2019-01-08T05:49:46.407Z,31.90
2019-01-08T05:52:26.298Z,29.10
2019-01-08T05:55:06.230Z,26.07
2019-01-08T05:57:46.772Z,24.85
2019-01-08T06:00:26.951Z,26.27
2019-01-08T06:03:06.717Z,32.30
2019-01-08T06:05:46.744Z,26.68
2019-01-08T06:08:26.736Z,22.50
2019-01-08T06:11:07.599Z,25.32
2019-01-08T06:13:48.010Z,26.00
2019-01-08T06:16:28.111Z,26.17
2019-01-08T06:19:11.302Z,25.48
2019-01-08T06:21:51.367Z,25.52
2019-01-08T06:24:31.696Z,24.05
2019-01-08T06:27:11.412Z,24.47
2019-01-08T06:29:51.802Z,22.98
2019-01-08T06:32:32.101Z,17.90
2019-01-08T06:35:11.941Z,21.93
2019-01-08T06:37:51.810Z,22.10
2019-01-08T06:40:32.418Z,20.80
2019-01-08T06:43:10.716Z,20.20
2019-01-08T06:45:57.707Z,20.90
2019-01-08T06:48:38.228Z,18.27
2019-01-08T06:51:18.248Z,17.32
2019-01-08T06:53:58.154Z,19.48
2019-01-08T06:56:38.286Z,18.32
2019-01-08T06:59:18.540Z,17.48
2019-01-08T07:01:58.415Z,17.10
2019-01-08T07:04:38.510Z,16.60
2019-01-08T07:07:18.186Z,17.85
2019-01-08T07:09:58.697Z,15.43
2019-01-08T07:12:38.624Z,12.50
2019-01-08T07:15:18.720Z,12.98
2019-01-08T07:17:58.753Z,16.52
2019-01-08T07:20:38.902Z,13.40
2019-01-08T07:23:19.001Z,14.78
2019-01-08T07:25:59.179Z,15.05
2019-01-08T07:28:39.004Z,12.23
2019-01-08T07:31:19.119Z,13.22
2019-01-08T07:33:59.292Z,11.73
2019-01-08T07:36:39.465Z,9.10
2019-01-08T07:39:19.521Z,8.80
2019-01-08T07:41:59.624Z,9.28
2019-01-08T07:44:39.794Z,8.13
2019-01-08T07:47:20.073Z,10.63
2019-01-08T07:49:59.776Z,6.70
2019-01-08T07:52:39.728Z,9.05
2019-01-08T07:55:20.025Z,6.40
2019-01-08T07:58:00.284Z,6.72
2019-01-08T08:00:40.288Z,5.40
2019-01-08T08:03:20.477Z,7.60
2019-01-08T08:06:01.538Z,6.55
2019-01-08T08:08:41.434Z,4.37
2019-01-08T08:11:22.047Z,4.83
2019-01-08T08:14:01.862Z,4.28
2019-01-08T08:16:42.360Z,3.55
2019-01-08T08:19:22.439Z,3.30
2019-01-08T08:22:01.999Z,8.53
2019-01-08T08:24:42.548Z,6.42
2019-01-08T08:27:22.620Z,6.33
2019-01-08T08:30:03.071Z,3.80
2019-01-08T08:32:42.776Z,3.90
2019-01-08T08:35:23.109Z,3.80
2019-01-08T08:38:03.182Z,4.87
2019-01-08T08:40:43.397Z,4.40
2019-01-08T08:43:23.467Z,4.70
2019-01-08T08:46:03.836Z,3.33
2019-01-08T08:48:44.054Z,3.42
2019-01-08T08:51:23.818Z,4.05
2019-01-08T08:54:03.832Z,2.58
2019-01-08T08:56:44.073Z,2.83
2019-01-08T08:59:23.988Z,3.33
2019-01-08T09:02:04.176Z,2.40
2019-01-08T09:04:44.241Z,2.55
2019-01-08T09:07:24.108Z,2.27
2019-01-08T09:10:04.045Z,2.72
2019-01-08T09:12:44.294Z,2.20
2019-01-08T09:15:24.420Z,2.10
2019-01-08T09:18:04.818Z,2.20
2019-01-08T09:20:45.358Z,2.33
2019-01-08T09:23:25.332Z,2.35
2019-01-08T09:26:05.643Z,2.77
2019-01-08T09:28:45.684Z,4.10
2019-01-08T09:31:25.999Z,2.62
2019-01-08T09:34:06.118Z,2.35
2019-01-08T09:36:46.172Z,2.10
2019-01-08T09:39:26.333Z,3.77
2019-01-08T09:42:07.013Z,2.45
2019-01-08T09:44:47.691Z,6.25
2019-01-08T09:47:27.864Z,17.55
2019-01-08T09:50:07.972Z,8.40
2019-01-08T09:52:48.202Z,4.05
2019-01-08T09:55:28.295Z,4.55
2019-01-08T09:58:08.390Z,4.28
2019-01-08T10:00:48.414Z,3.33
2019-01-08T10:03:28.837Z,3.05
2019-01-08T10:06:08.728Z,3.00
2019-01-08T10:08:49.060Z,3.15
2019-01-08T10:11:29.589Z,2.90
2019-01-08T10:14:09.660Z,3.20
2019-01-08T10:16:49.443Z,3.08
2019-01-08T10:19:29.362Z,3.55
2019-01-08T10:22:09.874Z,7.80
2019-01-08T10:24:49.750Z,2.55
2019-01-08T10:27:17.168Z,2.72
2019-01-08T10:30:04.408Z,5.53
2019-01-08T10:32:44.739Z,2.98
2019-01-08T10:35:24.810Z,2.55
2019-01-08T10:38:05.246Z,4.42
2019-01-08T10:40:45.383Z,2.30
2019-01-08T10:43:26.368Z,2.70
2019-01-08T10:46:06.310Z,4.62
2019-01-08T10:48:46.764Z,3.00
2019-01-08T10:51:26.646Z,3.77
2019-01-08T10:54:06.549Z,2.50
2019-01-08T10:56:46.626Z,2.67
2019-01-08T10:59:26.975Z,2.20
2019-01-08T11:02:07.160Z,2.92
2019-01-08T11:04:47.156Z,2.30
2019-01-08T11:07:27.592Z,2.75
2019-01-08T11:10:09.075Z,4.17
2019-01-08T11:12:49.313Z,3.22
2019-01-08T11:15:29.431Z,2.55
2019-01-08T11:18:09.913Z,2.47
2019-01-08T11:20:51.550Z,4.85
2019-01-08T11:23:31.684Z,4.65
2019-01-08T11:26:12.000Z,2.67
2019-01-08T11:28:51.740Z,9.43
2019-01-08T11:31:32.076Z,2.60
2019-01-08T11:34:12.149Z,3.50
2019-01-08T11:36:52.383Z,2.90
2019-01-08T11:42:12.565Z,2.67
2019-01-08T11:44:53.072Z,2.53
2019-01-08T11:47:33.127Z,4.50
2019-01-08T11:50:13.411Z,3.08
2019-01-08T11:52:53.485Z,2.92
2019-01-08T11:55:33.392Z,2.80
2019-01-08T11:58:16.611Z,3.05
2019-01-08T12:00:56.618Z,4.10
2019-01-08T12:03:36.601Z,3.90
2019-01-08T12:06:16.726Z,3.02
2019-01-08T12:08:57.158Z,7.72
2019-01-08T12:11:37.130Z,7.12
2019-01-08T12:14:16.882Z,5.12
2019-01-08T12:16:57.393Z,8.27
2019-01-08T12:19:37.242Z,10.18
2019-01-08T12:22:17.336Z,12.50
2019-01-08T12:24:57.370Z,11.53
2019-01-08T12:27:37.699Z,12.77
2019-01-08T12:30:17.978Z,8.53
2019-01-08T12:32:58.081Z,14.03
2019-01-08T12:35:38.308Z,8.13
2019-01-08T12:38:18.210Z,15.80
2019-01-08T12:40:58.834Z,11.10
2019-01-08T12:43:38.700Z,6.97
2019-01-08T12:46:19.079Z,12.10
2019-01-08T12:48:59.206Z,11.20
2019-01-08T12:51:39.583Z,14.23
2019-01-08T12:54:19.860Z,7.13
2019-01-08T12:57:00.005Z,11.70
2019-01-08T12:59:39.761Z,11.53
2019-01-08T13:02:20.937Z,10.03
2019-01-08T13:05:01.054Z,17.97
2019-01-08T13:07:40.943Z,7.93
2019-01-08T13:10:21.243Z,9.40
2019-01-08T13:13:01.608Z,3.50
2019-01-08T13:15:41.430Z,6.20
2019-01-08T13:18:21.200Z,5.17
2019-01-08T13:21:01.864Z,17.73
2019-01-08T13:23:42.039Z,7.57
2019-01-08T13:26:21.520Z,11.33
2019-01-08T13:29:01.716Z,12.33
2019-01-08T13:31:41.940Z,15.10
2019-01-08T13:34:22.153Z,7.67
2019-01-08T13:37:02.369Z,6.13
2019-01-08T13:39:42.377Z,8.50
2019-01-08T13:42:22.420Z,5.23
2019-01-08T13:45:03.636Z,10.27
2019-01-08T13:47:44.888Z,4.63
2019-01-08T13:50:24.929Z,3.80
2019-01-08T13:53:04.850Z,10.80
2019-01-08T13:55:45.403Z,9.03
2019-01-08T13:58:25.242Z,7.50
2019-01-08T14:01:05.526Z,6.53
2019-01-08T14:03:45.621Z,9.00
2019-01-08T14:06:25.944Z,3.23
2019-01-08T14:09:06.090Z,10.33
2019-01-08T14:11:46.097Z,4.50
2019-01-08T14:14:26.892Z,5.27
2019-01-08T14:17:07.679Z,10.63
2019-01-08T14:19:47.648Z,9.77
2019-01-08T14:22:27.630Z,7.60
2019-01-08T14:25:07.954Z,8.17
2019-01-08T14:27:48.939Z,6.43
2019-01-08T14:30:29.224Z,9.00
2019-01-08T14:33:08.843Z,6.53
2019-01-08T14:35:48.958Z,12.23
2019-01-08T14:38:29.110Z,7.57
2019-01-08T14:41:08.990Z,15.90
2019-01-08T14:43:49.460Z,8.83
2019-01-08T14:46:29.453Z,9.23
2019-01-08T14:49:09.865Z,13.73
2019-01-08T14:51:49.849Z,10.67
2019-01-08T14:54:29.749Z,5.70
2019-01-08T14:57:09.853Z,6.83
2019-01-08T14:59:49.980Z,7.70
2019-01-08T15:02:30.078Z,6.20
2019-01-08T15:05:10.314Z,8.37
2019-01-08T15:07:50.396Z,5.73
2019-01-08T15:10:30.238Z,10.37
2019-01-08T15:15:50.330Z,9.13
2019-01-08T15:18:31.470Z,6.30
2019-01-08T15:21:12.244Z,7.50
2019-01-08T15:23:51.946Z,8.50
2019-01-08T15:26:32.658Z,10.73
2019-01-08T15:29:12.184Z,6.63
2019-01-08T15:31:52.499Z,7.20
2019-01-08T15:34:32.531Z,8.43
2019-01-08T15:37:12.436Z,12.90
2019-01-08T15:39:52.470Z,2.30
2019-01-08T15:42:32.754Z,12.53
2019-01-08T15:45:12.761Z,19.77
2019-01-08T15:47:52.738Z,15.87
2019-01-08T15:50:32.787Z,6.63
2019-01-08T15:53:13.176Z,4.33
2019-01-08T15:55:53.363Z,9.23
2019-01-08T15:58:33.242Z,5.10
2019-01-08T16:01:13.481Z,11.50
2019-01-08T16:03:53.693Z,5.57
2019-01-08T16:06:33.669Z,5.70
2019-01-08T16:09:13.618Z,6.37
2019-01-08T16:11:53.744Z,7.93
2019-01-08T16:14:33.741Z,6.63
2019-01-08T16:17:13.895Z,10.13
2019-01-08T16:19:54.096Z,7.70
2019-01-08T16:22:34.340Z,17.83
2019-01-08T16:25:15.960Z,10.50
2019-01-08T16:27:55.906Z,9.10
2019-01-08T16:30:35.827Z,11.83
2019-01-08T16:33:16.488Z,8.60
2019-01-08T16:35:57.068Z,12.80
2019-01-08T16:38:37.075Z,8.63
2019-01-08T16:41:17.092Z,3.60
2019-01-08T16:43:57.478Z,13.73
2019-01-08T16:46:37.561Z,8.70
2019-01-08T16:49:17.699Z,7.67
2019-01-08T16:51:58.096Z,6.33
2019-01-08T16:54:38.320Z,4.57
2019-01-08T16:57:18.248Z,10.43
2019-01-08T16:59:58.412Z,8.10
2019-01-08T17:02:38.636Z,7.23
2019-01-08T17:05:18.654Z,14.90
2019-01-08T17:07:58.781Z,8.60
2019-01-08T17:10:38.942Z,20.73
2019-01-08T17:13:19.064Z,14.20
2019-01-08T17:15:59.068Z,14.03
2019-01-08T17:18:39.229Z,8.30
2019-01-08T17:21:19.297Z,7.67
2019-01-08T17:23:59.378Z,7.30
2019-01-08T17:26:39.720Z,6.43
2019-01-08T17:29:23.067Z,6.63
2019-01-08T17:32:03.104Z,8.07
2019-01-08T17:34:43.066Z,8.60
2019-01-08T17:37:23.140Z,4.90
2019-01-08T17:40:03.354Z,4.07
2019-01-08T17:42:43.328Z,15.27
2019-01-08T17:45:23.382Z,4.67
2019-01-08T17:48:03.745Z,5.43
2019-01-08T17:50:43.684Z,3.07
2019-01-08T17:53:23.643Z,6.47
2019-01-08T17:56:03.700Z,5.80
2019-01-08T17:58:43.786Z,7.40
2019-01-08T18:01:23.793Z,7.70
2019-01-08T18:04:03.858Z,5.90
2019-01-08T18:06:44.434Z,7.73
2019-01-08T18:09:24.438Z,6.17
2019-01-08T18:12:04.669Z,5.00
2019-01-08T18:14:44.837Z,10.43
2019-01-08T18:17:24.766Z,5.63
2019-01-08T18:20:04.678Z,5.80
2019-01-08T18:22:44.568Z,8.43
2019-01-08T18:25:24.988Z,5.30
2019-01-08T18:28:05.224Z,6.87
2019-01-08T18:30:45.136Z,13.90
2019-01-08T18:33:25.349Z,10.83
2019-01-08T18:36:06.366Z,5.90
2019-01-08T18:38:47.425Z,3.73
2019-01-08T18:41:27.618Z,4.63
2019-01-08T18:44:07.804Z,6.53
2019-01-08T18:46:47.908Z,9.07
2019-01-08T18:49:27.794Z,5.50
2019-01-08T18:52:08.053Z,3.80
2019-01-08T18:54:48.078Z,10.93
2019-01-08T18:57:28.295Z,2.90
2019-01-08T19:00:08.562Z,5.33
2019-01-08T19:02:48.628Z,8.23
2019-01-08T19:05:28.628Z,5.70
2019-01-08T19:08:08.784Z,9.13
2019-01-08T19:10:48.612Z,8.00
2019-01-08T19:13:29.275Z,8.37
2019-01-08T19:16:10.058Z,5.63
2019-01-08T19:18:50.041Z,4.30
2019-01-08T19:21:30.196Z,6.17
2019-01-08T19:24:11.141Z,11.70
2019-01-08T19:26:51.811Z,15.23
2019-01-08T19:29:31.955Z,7.67
2019-01-08T19:34:52.558Z,9.37
2019-01-08T19:37:32.308Z,11.90
2019-01-08T19:40:12.209Z,6.30
2019-01-08T19:42:52.920Z,7.03
2019-01-08T19:45:33.396Z,7.40
2019-01-08T19:48:13.826Z,6.63
2019-01-08T19:50:53.931Z,6.37
2019-01-08T19:53:33.676Z,7.27
2019-01-08T19:56:13.947Z,6.40
2019-01-08T19:58:53.836Z,7.80
2019-01-08T20:01:33.958Z,11.40
2019-01-08T20:04:18.003Z,5.40
2019-01-08T20:06:56.180Z,17.90
2019-01-08T20:09:35.997Z,3.93
2019-01-08T20:12:16.309Z,4.27
2019-01-08T20:14:56.657Z,2.70
2019-01-08T20:17:36.357Z,2.60
2019-01-08T20:20:16.513Z,5.43
2019-01-08T20:22:56.272Z,3.33
2019-01-08T20:25:35.994Z,4.13
2019-01-08T20:28:14.234Z,5.30
2019-01-08T20:31:01.273Z,2.37
2019-01-08T20:33:42.170Z,5.50
2019-01-08T20:36:22.802Z,2.60
2019-01-08T20:39:03.224Z,11.13
2019-01-08T20:41:44.629Z,10.63
2019-01-08T20:44:12.163Z,6.07
2019-01-08T20:46:59.162Z,6.40
2019-01-08T20:49:39.152Z,8.97
2019-01-08T20:52:06.719Z,8.47
2019-01-08T20:54:53.962Z,7.20
2019-01-08T20:57:34.221Z,7.93
2019-01-08T21:00:13.994Z,7.57
2019-01-08T21:02:54.174Z,8.17
2019-01-08T21:05:34.241Z,8.40
2019-01-08T21:08:14.538Z,4.70
2019-01-08T21:10:54.756Z,10.70
2019-01-08T21:13:34.729Z,6.50
2019-01-08T21:16:15.052Z,8.20
2019-01-08T21:18:54.805Z,7.13
2019-01-08T21:21:35.029Z,5.50
2019-01-08T21:24:14.824Z,5.97
2019-01-08T21:26:55.055Z,9.77
2019-01-08T21:29:35.022Z,5.53
2019-01-08T21:32:15.280Z,7.80
2019-01-08T21:34:55.628Z,7.10
2019-01-08T21:37:35.982Z,6.70
2019-01-08T21:40:15.930Z,2.33
2019-01-08T21:42:56.427Z,8.07
2019-01-08T21:45:36.464Z,4.73
2019-01-08T21:48:16.126Z,3.83
2019-01-08T21:50:56.106Z,4.50
2019-01-08T21:53:36.266Z,6.87
2019-01-08T21:56:16.120Z,3.00
2019-01-08T21:58:56.414Z,11.03
2019-01-08T22:01:36.872Z,6.73
2019-01-08T22:04:16.885Z,6.73
2019-01-08T22:06:56.731Z,5.20
2019-01-08T22:09:36.959Z,4.50
2019-01-08T22:12:16.864Z,11.70
2019-01-08T22:14:56.872Z,4.63
2019-01-08T22:17:36.642Z,4.77
2019-01-08T22:20:16.934Z,4.93
2019-01-08T22:22:57.103Z,7.37
2019-01-08T22:25:37.648Z,8.33
2019-01-08T22:28:17.409Z,4.90
2019-01-08T22:30:57.778Z,9.00
2019-01-08T22:33:37.795Z,4.30
2019-01-08T22:36:17.769Z,7.90
2019-01-08T22:38:57.892Z,10.73
2019-01-08T22:41:38.011Z,9.58
2019-01-08T22:44:18.115Z,9.70
2019-01-08T22:46:58.218Z,9.80
2019-01-08T22:49:39.179Z,11.10
2019-01-08T22:52:19.512Z,6.83
2019-01-08T22:54:59.267Z,4.55
2019-01-08T22:57:39.034Z,3.90
2019-01-08T23:00:38.848Z,6.30
2019-01-08T23:03:21.098Z,14.23
2019-01-08T23:06:01.748Z,16.00
2019-01-08T23:08:41.885Z,4.13
2019-01-08T23:11:22.246Z,5.40
2019-01-08T23:14:02.291Z,10.50
2019-01-08T23:16:42.355Z,3.73
2019-01-08T23:19:22.440Z,16.27
2019-01-08T23:22:02.709Z,11.43
2019-01-08T23:24:42.748Z,7.93
2019-01-08T23:27:22.870Z,4.83
2019-01-08T23:30:02.997Z,9.17
2019-01-08T23:32:42.950Z,9.93
2019-01-08T23:35:23.015Z,5.70
2019-01-08T23:38:03.235Z,8.80
2019-01-08T23:40:43.298Z,6.63
2019-01-08T23:43:23.343Z,8.67
2019-01-08T23:46:03.336Z,9.83
2019-01-08T23:48:43.279Z,10.80
2019-01-08T23:51:23.416Z,12.07
2019-01-08T23:54:03.848Z,8.40
2019-01-08T23:56:44.501Z,7.20
2019-01-08T23:59:26.134Z,5.63
